Time;durP1;ratioP1;P1;durP2;ratioP2;P2;SDS_P1;SDS_P2;PMS_P1;PMS_P2;Temp;Humidity;BMP_temperature;BMP_pressure;BME280_temperature;BME280_humidity;BME280_pressure;Samples;Min_cycle;Max_cycle;Signal;HPM_P1;HPM_P2
2020/12/08 00:00:55;;;;;;;25.30;15.60;;;8.50;93.70;;;;;;5027224;28;20359;-74
2020/12/08 00:03:20;;;;;;;20.48;12.88;;;8.50;93.70;;;;;;5023995;28;20025;-73
2020/12/08 00:05:46;;;;;;;24.52;15.18;;;8.50;93.80;;;;;;5033145;28;20040;-74
2020/12/08 00:08:13;;;;;;;26.92;14.93;;;8.40;93.90;;;;;;5030892;28;20497;-74
2020/12/08 00:10:39;;;;;;;30.05;16.92;;;8.50;94.10;;;;;;5034468;28;20500;-74
2020/12/08 00:13:04;;;;;;;27.83;16.27;;;8.50;94.10;;;;;;5024284;28;20049;-74
2020/12/08 00:15:30;;;;;;;29.92;17.55;;;8.40;94.20;;;;;;5016532;28;20025;-74
2020/12/08 00:17:55;;;;;;;25.58;15.50;;;8.40;94.30;;;;;;5024835;28;20022;-74
2020/12/08 00:20:21;;;;;;;22.60;14.65;;;8.40;94.40;;;;;;5028586;28;20022;-74
2020/12/08 00:22:47;;;;;;;27.67;17.00;;;8.40;94.40;;;;;;5017091;28;20065;-74
2020/12/08 00:25:13;;;;;;;24.98;15.75;;;8.50;94.40;;;;;;5036059;28;20036;-74
2020/12/08 00:27:39;;;;;;;28.40;17.63;;;8.50;94.50;;;;;;5030120;28;20036;-73
2020/12/08 00:30:08;;;;;;;27.45;16.63;;;8.50;94.60;;;;;;5033945;28;20531;-74
2020/12/08 00:32:36;;;;;;;29.33;17.30;;;8.50;94.60;;;;;;5028286;28;20310;-73
2020/12/08 00:35:02;;;;;;;27.52;17.35;;;8.50;94.60;;;;;;5016241;28;20350;-74
2020/12/08 00:37:27;;;;;;;29.90;18.60;;;8.50;94.60;;;;;;5032557;28;20068;-73
2020/12/08 00:39:53;;;;;;;34.53;17.33;;;8.40;94.60;;;;;;5032723;28;20452;-74
2020/12/08 00:42:18;;;;;;;29.23;18.27;;;8.40;94.70;;;;;;5038142;28;20034;-73
2020/12/08 00:44:44;;;;;;;30.63;17.55;;;8.40;94.70;;;;;;5033653;28;20541;-74
2020/12/08 00:47:09;;;;;;;33.35;19.05;;;8.40;94.80;;;;;;5027914;28;20043;-73
2020/12/08 00:49:35;;;;;;;29.17;17.98;;;8.40;94.80;;;;;;5030838;28;20433;-74
2020/12/08 00:52:00;;;;;;;29.50;18.38;;;8.50;94.80;;;;;;5028269;28;20037;-74
2020/12/08 00:54:26;;;;;;;36.22;19.23;;;8.50;94.80;;;;;;5030740;28;20482;-73
2020/12/08 00:56:51;;;;;;;32.40;20.80;;;8.40;94.80;;;;;;5033690;28;20021;-74
2020/12/08 00:59:17;;;;;;;33.00;19.75;;;8.50;94.90;;;;;;5030056;28;20053;-74
2020/12/08 01:01:43;;;;;;;32.22;19.33;;;8.40;95.00;;;;;;5021108;28;20442;-73
2020/12/08 01:04:09;;;;;;;34.28;20.30;;;8.40;95.00;;;;;;5026283;28;20036;-73
2020/12/08 01:06:39;;;;;;;33.10;19.60;;;8.30;95.00;;;;;;5031441;28;20503;-73
2020/12/08 01:09:06;;;;;;;31.88;20.08;;;8.30;95.00;;;;;;5024503;28;20556;-73
2020/12/08 01:11:41;;;;;;;31.98;20.30;;;8.30;95.10;;;;;;5033451;28;20025;-73
2020/12/08 01:14:08;;;;;;;30.17;19.65;;;8.30;95.00;;;;;;5040034;28;20033;-73
2020/12/08 01:16:33;;;;;;;34.55;20.27;;;8.20;95.00;;;;;;5034473;28;20493;-73
2020/12/08 01:18:59;;;;;;;37.00;20.27;;;8.20;95.10;;;;;;5024904;28;20029;-73
2020/12/08 01:21:24;;;;;;;32.88;21.02;;;8.20;95.20;;;;;;5029647;28;20036;-73
2020/12/08 01:23:50;;;;;;;34.90;20.85;;;8.10;95.10;;;;;;5045718;28;20021;-73
2020/12/08 01:26:26;;;;;;;31.65;20.02;;;8.10;95.20;;;;;;5031358;28;20112;-73
2020/12/08 01:28:52;;;;;;;31.85;20.45;;;8.10;95.20;;;;;;5026760;28;20036;-73
2020/12/08 01:31:17;;;;;;;37.13;20.83;;;8.10;95.30;;;;;;5022954;28;20489;-74
2020/12/08 01:33:44;;;;;;;34.95;20.83;;;8.10;95.30;;;;;;5026314;28;20051;-73
2020/12/08 01:36:10;;;;;;;34.63;21.50;;;8.00;95.30;;;;;;5019237;28;20028;-73
2020/12/08 01:38:35;;;;;;;38.25;21.48;;;8.00;95.30;;;;;;5031888;28;20029;-73
2020/12/08 01:41:01;;;;;;;36.30;22.02;;;8.10;95.40;;;;;;5015495;28;20037;-73
2020/12/08 01:43:27;;;;;;;36.33;21.30;;;8.00;95.40;;;;;;5017449;28;20112;-73
2020/12/08 01:45:53;;;;;;;36.13;20.65;;;8.00;95.50;;;;;;5012950;28;20112;-73
2020/12/08 01:48:18;;;;;;;34.35;20.75;;;8.00;95.60;;;;;;5007056;28;20429;-72
2020/12/08 01:50:44;;;;;;;39.35;22.60;;;8.10;95.60;;;;;;5051240;28;20418;-72
2020/12/08 01:53:11;;;;;;;37.53;21.65;;;8.10;95.60;;;;;;5041338;28;20111;-72
2020/12/08 01:55:40;;;;;;;36.45;22.13;;;8.00;95.50;;;;;;5007403;28;20038;-73
2020/12/08 01:58:20;;;;;;;37.85;21.83;;;8.00;95.50;;;;;;5024465;28;20026;-73
2020/12/08 02:00:48;;;;;;;41.85;22.95;;;8.00;95.60;;;;;;5026703;28;20041;-73
2020/12/08 02:03:18;;;;;;;43.72;22.40;;;8.00;95.50;;;;;;5016987;28;20070;-73
2020/12/08 02:05:44;;;;;;;38.25;22.08;;;8.10;95.60;;;;;;5043510;28;20032;-72
2020/12/08 02:08:10;;;;;;;39.35;22.65;;;8.10;95.50;;;;;;5015522;28;20052;-72
2020/12/08 02:10:36;;;;;;;37.72;21.67;;;8.10;95.60;;;;;;5018520;28;20061;-72
2020/12/08 02:13:04;;;;;;;37.30;21.27;;;8.10;95.60;;;;;;5014195;28;20642;-72
2020/12/08 02:15:30;;;;;;;38.47;22.98;;;8.10;95.80;;;;;;5022145;28;20040;-73
2020/12/08 02:17:56;;;;;;;39.22;23.13;;;8.10;95.60;;;;;;5020101;28;20025;-72
2020/12/08 02:20:23;;;;;;;37.70;21.35;;;8.10;95.50;;;;;;5029969;28;20063;-72
2020/12/08 02:22:51;;;;;;;39.88;22.88;;;8.10;95.50;;;;;;5031126;28;20034;-72
2020/12/08 02:25:17;;;;;;;39.63;22.35;;;8.10;95.50;;;;;;5011460;28;20059;-72
2020/12/08 02:27:42;;;;;;;36.42;22.25;;;8.10;95.70;;;;;;5029791;28;20013;-72
2020/12/08 02:30:08;;;;;;;36.05;20.20;;;8.10;95.50;;;;;;5031067;28;20058;-72
2020/12/08 02:32:33;;;;;;;37.78;22.10;;;8.10;95.50;;;;;;5027214;28;20485;-72
2020/12/08 02:34:58;;;;;;;42.95;23.02;;;8.00;95.50;;;;;;5018414;28;20108;-72
2020/12/08 02:37:24;;;;;;;43.35;23.50;;;8.10;95.50;;;;;;5011776;28;20544;-72
2020/12/08 02:39:49;;;;;;;41.28;23.15;;;8.10;95.50;;;;;;5029465;28;20044;-72
2020/12/08 02:42:15;;;;;;;39.28;23.42;;;8.10;95.50;;;;;;5029532;28;20026;-72
2020/12/08 02:44:41;;;;;;;37.13;21.77;;;8.10;95.50;;;;;;5012613;28;20504;-72
2020/12/08 02:47:07;;;;;;;40.13;22.15;;;8.10;95.40;;;;;;5029880;28;20100;-72
2020/12/08 02:49:32;;;;;;;38.70;21.50;;;8.10;95.40;;;;;;5024755;28;20160;-72
2020/12/08 02:51:58;;;;;;;44.10;25.77;;;8.10;95.40;;;;;;5049062;28;20048;-71
2020/12/08 02:54:23;;;;;;;41.97;23.17;;;8.10;95.40;;;;;;5018776;28;20121;-72
2020/12/08 02:56:49;;;;;;;39.13;24.40;;;8.10;95.50;;;;;;5031216;28;20501;-71
2020/12/08 02:59:14;;;;;;;38.45;22.08;;;8.10;95.50;;;;;;5027698;28;20508;-72
2020/12/08 03:01:40;;;;;;;40.22;22.58;;;8.00;95.40;;;;;;5030406;28;20405;-71
2020/12/08 03:04:05;;;;;;;36.72;22.20;;;8.00;95.40;;;;;;5029976;28;20058;-71
2020/12/08 03:06:31;;;;;;;43.50;23.63;;;8.10;95.40;;;;;;5017580;28;20371;-72
2020/12/08 03:08:56;;;;;;;39.33;23.00;;;8.10;95.40;;;;;;5013359;28;20021;-72
2020/12/08 03:11:32;;;;;;;37.10;22.25;;;8.10;95.40;;;;;;5016202;28;20053;-71
2020/12/08 03:13:58;;;;;;;38.70;21.30;;;8.10;95.40;;;;;;5024575;28;20119;-72
2020/12/08 03:16:23;;;;;;;39.35;22.95;;;8.00;95.40;;;;;;5051080;28;20053;-72
2020/12/08 03:18:49;;;;;;;38.45;22.05;;;8.10;95.40;;;;;;5018503;28;20482;-72
2020/12/08 03:21:14;;;;;;;37.55;23.77;;;8.00;95.40;;;;;;5016321;28;20034;-72
2020/12/08 03:23:40;;;;;;;36.83;22.73;;;8.10;95.40;;;;;;5011087;28;20438;-72
2020/12/08 03:26:06;;;;;;;41.08;22.98;;;8.10;95.40;;;;;;5039548;28;20125;-72
2020/12/08 03:28:31;;;;;;;39.40;22.02;;;8.10;95.30;;;;;;5036937;28;20362;-72
2020/12/08 03:30:57;;;;;;;42.67;23.63;;;8.10;95.30;;;;;;5029479;28;20056;-72
2020/12/08 03:33:22;;;;;;;38.25;22.13;;;8.10;95.30;;;;;;5027312;28;20018;-72
2020/12/08 03:35:48;;;;;;;39.25;22.38;;;8.10;95.30;;;;;;5026977;28;20037;-73
2020/12/08 03:38:13;;;;;;;36.42;21.60;;;8.10;95.30;;;;;;5022869;28;20029;-72
2020/12/08 03:40:40;;;;;;;41.53;22.85;;;8.10;95.30;;;;;;5034197;28;20489;-72
2020/12/08 03:43:05;;;;;;;39.80;23.77;;;8.10;95.30;;;;;;5026582;28;20552;-72
2020/12/08 03:45:31;;;;;;;46.78;23.67;;;8.10;95.20;;;;;;5038509;28;20021;-72
2020/12/08 03:47:56;;;;;;;40.92;24.27;;;8.10;95.20;;;;;;5012954;28;20022;-72
2020/12/08 03:50:22;;;;;;;38.55;22.77;;;8.10;95.20;;;;;;5039093;28;20064;-72
2020/12/08 03:52:47;;;;;;;42.33;23.85;;;8.10;95.30;;;;;;5025893;28;20042;-72
2020/12/08 03:55:13;;;;;;;43.30;23.52;;;8.10;95.30;;;;;;5029408;28;20033;-72
2020/12/08 03:57:38;;;;;;;40.90;23.80;;;8.10;95.20;;;;;;5028701;28;20018;-72
2020/12/08 04:00:09;;;;;;;42.72;24.58;;;8.10;95.30;;;;;;5023310;28;20121;-71
2020/12/08 04:02:35;;;;;;;41.53;23.90;;;8.10;95.20;;;;;;5029514;28;20048;-71
2020/12/08 04:05:00;;;;;;;41.83;22.77;;;8.10;95.20;;;;;;5019949;28;20504;-71
2020/12/08 04:07:26;;;;;;;45.10;24.08;;;8.10;95.20;;;;;;5012512;28;20120;-72
2020/12/08 04:09:51;;;;;;;36.50;21.67;;;8.10;95.20;;;;;;5011110;28;20033;-71
2020/12/08 04:12:17;;;;;;;39.25;21.77;;;8.10;95.20;;;;;;5010794;28;20032;-72
2020/12/08 04:14:42;;;;;;;45.67;25.42;;;8.10;95.20;;;;;;5021945;28;20439;-71
2020/12/08 04:17:08;;;;;;;43.92;24.27;;;8.00;95.20;;;;;;5050497;28;20037;-71
2020/12/08 04:19:33;;;;;;;44.40;23.92;;;8.10;95.20;;;;;;5043146;28;20454;-71
2020/12/08 04:22:02;;;;;;;45.63;24.27;;;8.00;95.20;;;;;;5033954;28;20026;-72
2020/12/08 04:24:27;;;;;;;43.70;24.00;;;8.00;95.20;;;;;;5032311;28;20021;-71
2020/12/08 04:26:53;;;;;;;42.80;24.23;;;8.00;95.30;;;;;;5037060;28;20482;-72
2020/12/08 04:29:19;;;;;;;41.33;22.73;;;8.00;95.30;;;;;;5019461;28;20649;-71
2020/12/08 04:31:44;;;;;;;42.10;24.88;;;8.00;95.30;;;;;;5021669;28;20521;-71
2020/12/08 04:34:09;;;;;;;40.45;24.15;;;8.00;95.30;;;;;;5032504;28;20485;-71
2020/12/08 04:36:35;;;;;;;41.42;23.33;;;8.00;95.20;;;;;;5038363;28;20148;-72
2020/12/08 04:39:00;;;;;;;41.92;23.35;;;8.00;95.30;;;;;;5032701;28;20462;-71
2020/12/08 04:41:27;;;;;;;40.92;24.05;;;7.90;95.20;;;;;;5023174;28;20120;-72
2020/12/08 04:43:53;;;;;;;43.13;23.75;;;8.00;95.20;;;;;;5028364;28;20029;-72
2020/12/08 04:46:20;;;;;;;43.55;22.48;;;7.90;95.20;;;;;;5033836;28;20109;-72
2020/12/08 04:48:46;;;;;;;38.92;22.77;;;7.90;95.20;;;;;;5042175;28;20047;-72
2020/12/08 04:51:12;;;;;;;41.70;23.40;;;7.90;95.20;;;;;;5026121;28;20073;-72
2020/12/08 04:53:38;;;;;;;41.75;23.98;;;7.90;95.20;;;;;;5013419;28;20046;-71
2020/12/08 04:56:03;;;;;;;42.15;24.50;;;7.90;95.20;;;;;;5028006;28;20061;-71
2020/12/08 04:58:29;;;;;;;43.80;24.05;;;7.90;95.30;;;;;;5020069;28;20109;-73
2020/12/08 05:00:54;;;;;;;50.03;25.30;;;7.90;95.30;;;;;;5025050;28;20445;-72
2020/12/08 05:03:24;;;;;;;42.65;23.42;;;7.90;95.30;;;;;;5012307;28;20018;-72
2020/12/08 05:05:50;;;;;;;37.75;23.65;;;7.90;95.20;;;;;;5019476;28;20084;-72
2020/12/08 05:08:16;;;;;;;43.75;23.17;;;7.90;95.20;;;;;;5013223;28;20034;-72
2020/12/08 05:10:42;;;;;;;43.30;23.73;;;7.90;95.20;;;;;;5013479;28;20394;-72
2020/12/08 05:13:14;;;;;;;40.60;23.40;;;7.80;95.20;;;;;;5013555;28;20022;-72
2020/12/08 05:15:39;;;;;;;39.97;24.33;;;7.90;95.20;;;;;;5031913;28;20061;-72
2020/12/08 05:18:10;;;;;;;43.75;24.80;;;7.80;95.20;;;;;;5015270;28;20067;-72
2020/12/08 05:20:36;;;;;;;44.33;23.38;;;7.80;95.30;;;;;;5037924;28;20045;-72
2020/12/08 05:23:02;;;;;;;40.95;23.77;;;7.80;95.20;;;;;;5037607;28;20084;-72
2020/12/08 05:25:30;;;;;;;40.17;23.33;;;7.80;95.20;;;;;;5029815;28;20025;-72
2020/12/08 05:27:58;;;;;;;41.70;22.95;;;7.80;95.20;;;;;;5005516;28;20057;-72
2020/12/08 05:30:25;;;;;;;39.47;22.33;;;7.80;95.20;;;;;;5026845;28;20035;-72
2020/12/08 05:32:51;;;;;;;40.25;23.25;;;7.80;95.20;;;;;;5024858;28;20378;-72
2020/12/08 05:35:19;;;;;;;39.30;23.90;;;7.80;95.20;;;;;;5020077;28;20053;-72
2020/12/08 05:37:47;;;;;;;40.25;23.45;;;7.80;95.10;;;;;;5014371;28;20049;-71
2020/12/08 05:40:21;;;;;;;45.13;24.92;;;7.80;95.10;;;;;;5023980;28;20064;-72
2020/12/08 05:42:48;;;;;;;42.45;23.48;;;7.80;95.10;;;;;;5018277;28;20041;-72
2020/12/08 05:45:16;;;;;;;44.63;25.20;;;7.80;95.10;;;;;;5018722;28;20025;-72
2020/12/08 05:47:50;;;;;;;43.67;24.90;;;7.80;95.10;;;;;;5032091;28;20030;-72
2020/12/08 05:50:17;;;;;;;40.67;23.05;;;7.80;95.10;;;;;;5034226;28;20036;-72
2020/12/08 05:52:48;;;;;;;38.63;22.08;;;7.80;95.10;;;;;;5052497;28;20045;-72
2020/12/08 05:55:16;;;;;;;41.72;22.98;;;7.80;95.20;;;;;;5041721;28;20175;-72
2020/12/08 05:57:42;;;;;;;39.13;22.90;;;7.80;95.10;;;;;;5023926;28;20029;-71
2020/12/08 06:00:26;;;;;;;43.25;23.23;;;7.80;95.10;;;;;;5026606;28;20121;-71
2020/12/08 06:03:09;;;;;;;39.08;22.95;;;7.80;95.10;;;;;;5052453;28;20084;-72
2020/12/08 06:05:36;;;;;;;43.65;24.42;;;7.80;95.10;;;;;;5040738;28;20088;-72
2020/12/08 06:08:16;;;;;;;43.80;25.00;;;7.70;95.10;;;;;;5046553;28;20496;-71
2020/12/08 06:10:53;;;;;;;42.08;23.13;;;7.70;95.10;;;;;;5022330;28;20099;-70
2020/12/08 06:13:30;;;;;;;40.67;23.33;;;7.70;95.10;;;;;;5012265;28;20103;-70
2020/12/08 06:15:58;;;;;;;39.38;22.38;;;7.80;95.00;;;;;;5012828;28;20030;-71
2020/12/08 06:18:32;;;;;;;42.33;23.10;;;7.80;95.00;;;;;;4995274;28;20378;-72
2020/12/08 06:20:59;;;;;;;40.15;23.60;;;7.80;95.00;;;;;;5022978;28;20041;-71
2020/12/08 06:23:25;;;;;;;40.85;22.90;;;7.80;95.00;;;;;;5032163;28;20029;-70
2020/12/08 06:26:01;;;;;;;42.13;23.00;;;7.80;95.00;;;;;;5023768;28;20029;-71
2020/12/08 06:28:27;;;;;;;44.25;24.02;;;7.80;94.90;;;;;;5027827;28;20035;-71
2020/12/08 06:31:06;;;;;;;41.33;23.33;;;7.80;94.90;;;;;;5038914;28;20094;-73
2020/12/08 06:33:48;;;;;;;41.92;23.27;;;7.80;94.90;;;;;;5031356;28;20022;-73
2020/12/08 06:36:14;;;;;;;44.70;25.15;;;7.80;95.00;;;;;;5021516;28;20110;-73
2020/12/08 06:38:40;;;;;;;39.70;23.30;;;7.80;94.90;;;;;;5012028;28;20017;-72
2020/12/08 06:41:06;;;;;;;42.40;24.35;;;7.80;94.90;;;;;;5029802;28;20098;-71
2020/12/08 06:43:37;;;;;;;42.15;23.00;;;7.80;94.90;;;;;;5023552;28;20124;-73
2020/12/08 06:46:09;;;;;;;42.78;24.33;;;7.80;94.90;;;;;;5022073;28;20030;-71
2020/12/08 06:48:35;;;;;;;41.20;24.25;;;7.80;94.90;;;;;;5013706;28;20033;-71
2020/12/08 06:51:02;;;;;;;45.65;24.60;;;7.70;94.80;;;;;;5041798;28;20025;-73
2020/12/08 06:53:28;;;;;;;42.33;23.63;;;7.80;94.90;;;;;;5051069;28;20052;-73
2020/12/08 06:55:53;;;;;;;46.25;24.13;;;7.70;94.80;;;;;;5038168;28;20026;-73
2020/12/08 06:58:20;;;;;;;40.13;22.45;;;7.70;94.90;;;;;;5011191;28;20025;-73
2020/12/08 07:00:46;;;;;;;43.58;22.70;;;7.70;94.90;;;;;;5027764;28;20037;-73
2020/12/08 07:03:13;;;;;;;39.90;23.05;;;7.70;94.90;;;;;;5030047;28;20501;-73
2020/12/08 07:05:39;;;;;;;43.25;22.92;;;7.70;94.90;;;;;;5037793;28;20075;-73
2020/12/08 07:08:06;;;;;;;45.85;25.00;;;7.70;94.90;;;;;;5030959;28;20025;-73
2020/12/08 07:10:37;;;;;;;41.08;22.83;;;7.70;94.90;;;;;;5023042;28;20474;-73
2020/12/08 07:13:09;;;;;;;41.92;23.75;;;7.70;94.90;;;;;;5021407;28;20486;-73
2020/12/08 07:15:35;;;;;;;40.55;23.38;;;7.70;94.80;;;;;;5019807;28;20628;-73
2020/12/08 07:18:06;;;;;;;40.03;23.58;;;7.70;94.80;;;;;;5051198;28;20152;-73
2020/12/08 07:20:33;;;;;;;42.03;23.23;;;7.70;94.80;;;;;;5037167;28;20088;-68
2020/12/08 07:23:06;;;;;;;39.17;23.20;;;7.70;94.80;;;;;;5011221;28;20372;-72
2020/12/08 07:25:33;;;;;;;45.65;23.80;;;7.70;94.80;;;;;;5016127;28;20025;-71
2020/12/08 07:28:00;;;;;;;41.53;22.80;;;7.60;94.80;;;;;;5019566;28;20393;-72
2020/12/08 07:30:28;;;;;;;44.42;23.75;;;7.70;94.80;;;;;;5026112;28;20022;-73
2020/12/08 07:32:54;;;;;;;44.55;24.38;;;7.60;94.80;;;;;;5027479;28;20033;-73
2020/12/08 07:35:29;;;;;;;42.53;24.33;;;7.60;94.80;;;;;;5044475;28;20037;-73
2020/12/08 07:37:57;;;;;;;41.83;22.08;;;7.60;94.80;;;;;;5031807;28;20540;-73
2020/12/08 07:40:40;;;;;;;44.28;24.95;;;7.60;94.80;;;;;;5031545;28;20494;-73
2020/12/08 07:43:06;;;;;;;39.47;24.00;;;7.70;94.80;;;;;;5031227;28;20017;-72
2020/12/08 07:45:33;;;;;;;40.33;22.83;;;7.60;94.60;;;;;;5029773;28;20506;-74
2020/12/08 07:48:01;;;;;;;40.70;24.27;;;7.60;94.60;;;;;;5032685;28;20113;-75
2020/12/08 07:50:31;;;;;;;39.65;23.17;;;7.60;94.60;;;;;;5030659;28;20025;-76
2020/12/08 07:53:04;;;;;;;39.40;23.67;;;7.60;94.70;;;;;;5050548;28;20124;-76
2020/12/08 07:55:38;;;;;;;43.63;23.50;;;7.60;94.70;;;;;;5047429;28;20037;-76
2020/12/08 07:58:03;;;;;;;41.85;24.17;;;7.60;94.70;;;;;;5034322;28;20512;-76
2020/12/08 08:00:29;;;;;;;41.67;23.98;;;7.60;94.60;;;;;;5031847;28;20026;-76
2020/12/08 08:02:55;;;;;;;40.53;23.55;;;7.60;94.60;;;;;;5022548;28;20640;-75
2020/12/08 08:05:21;;;;;;;41.47;23.58;;;7.60;94.50;;;;;;5016728;28;20059;-74
2020/12/08 08:07:47;;;;;;;39.47;22.67;;;7.60;94.50;;;;;;4997489;28;20662;-75
2020/12/08 08:10:13;;;;;;;43.60;23.08;;;7.60;94.40;;;;;;5015273;28;20041;-76
2020/12/08 08:12:39;;;;;;;37.47;22.80;;;7.60;94.50;;;;;;5016322;28;20030;-75
2020/12/08 08:15:05;;;;;;;41.58;22.25;;;7.60;94.50;;;;;;5025372;28;20033;-76
2020/12/08 08:17:31;;;;;;;37.97;22.98;;;7.60;94.50;;;;;;5033126;28;20029;-76
2020/12/08 08:19:57;;;;;;;40.28;23.98;;;7.60;94.50;;;;;;5034026;28;20208;-74
2020/12/08 08:22:23;;;;;;;38.17;22.67;;;7.60;94.30;;;;;;5026106;28;20088;-75
2020/12/08 08:24:48;;;;;;;44.67;23.25;;;7.50;94.30;;;;;;5033990;28;20037;-75
2020/12/08 08:27:14;;;;;;;37.88;23.70;;;7.50;94.30;;;;;;5032366;28;20035;-75
2020/12/08 08:29:40;;;;;;;43.08;24.42;;;7.50;94.30;;;;;;5043799;28;20413;-75
2020/12/08 08:32:08;;;;;;;42.22;23.80;;;7.50;94.30;;;;;;5033726;28;20049;-75
2020/12/08 08:34:34;;;;;;;41.35;24.10;;;7.50;94.30;;;;;;5024196;28;20756;-75
2020/12/08 08:37:00;;;;;;;43.03;24.92;;;7.50;94.20;;;;;;5043016;28;20029;-75
2020/12/08 08:39:26;;;;;;;42.40;24.05;;;7.50;94.10;;;;;;5043750;28;20035;-75
2020/12/08 08:41:53;;;;;;;43.70;23.77;;;7.50;94.10;;;;;;5015138;28;20152;-75
2020/12/08 08:44:19;;;;;;;39.13;24.17;;;7.50;94.10;;;;;;5032587;28;20056;-75
2020/12/08 08:46:45;;;;;;;40.50;23.10;;;7.50;94.10;;;;;;5041225;28;20128;-75
2020/12/08 08:49:16;;;;;;;40.72;24.50;;;7.40;94.00;;;;;;5039602;28;20097;-76
2020/12/08 08:51:43;;;;;;;44.42;23.85;;;7.40;94.00;;;;;;5033540;28;20061;-76
2020/12/08 08:54:10;;;;;;;45.15;24.50;;;7.40;94.00;;;;;;5012383;28;20052;-75
2020/12/08 08:56:36;;;;;;;38.03;22.27;;;7.30;93.90;;;;;;5030609;28;20025;-76
2020/12/08 08:59:03;;;;;;;39.58;22.08;;;7.30;94.00;;;;;;5045728;28;20053;-75
2020/12/08 09:01:29;;;;;;;44.35;21.85;;;7.20;93.90;;;;;;5039932;28;20037;-75
2020/12/08 09:03:57;;;;;;;44.25;26.05;;;7.20;94.00;;;;;;5034845;28;20136;-77
2020/12/08 09:06:23;;;;;;;49.00;26.13;;;7.10;94.10;;;;;;5036428;28;20121;-75
2020/12/08 09:08:48;;;;;;;45.72;24.15;;;7.10;94.10;;;;;;5049297;28;20088;-75
2020/12/08 09:11:14;;;;;;;39.45;23.88;;;7.10;94.20;;;;;;5032311;28;20029;-75
2020/12/08 09:13:40;;;;;;;43.10;25.45;;;7.10;94.20;;;;;;5030263;28;20222;-75
2020/12/08 09:16:06;;;;;;;40.00;22.98;;;7.10;94.20;;;;;;5030214;28;20041;-75
2020/12/08 09:18:32;;;;;;;40.53;22.40;;;7.00;94.30;;;;;;5032369;28;20030;-74
2020/12/08 09:20:57;;;;;;;38.38;24.02;;;7.00;94.30;;;;;;5032687;28;20030;-79
2020/12/08 09:23:26;;;;;;;39.53;22.92;;;7.10;94.30;;;;;;5049266;28;20385;-72
2020/12/08 09:25:55;;;;;;;39.90;24.80;;;7.10;94.30;;;;;;5031363;28;20437;-83
2020/12/08 09:28:22;;;;;;;39.63;23.73;;;7.10;94.30;;;;;;5038208;28;20482;-79
2020/12/08 09:30:48;;;;;;;38.10;23.80;;;7.10;94.30;;;;;;5032682;28;20385;-77
2020/12/08 09:33:15;;;;;;;46.75;25.48;;;7.10;94.30;;;;;;5020992;28;20034;-75
2020/12/08 09:35:41;;;;;;;47.22;26.40;;;7.10;94.20;;;;;;5014593;28;20057;-76
2020/12/08 09:38:06;;;;;;;44.88;25.33;;;7.20;94.20;;;;;;5038861;28;20110;-75
2020/12/08 09:40:33;;;;;;;40.45;24.52;;;7.20;94.20;;;;;;5051081;28;20033;-80
2020/12/08 09:42:59;;;;;;;40.25;24.05;;;7.20;94.20;;;;;;5032239;28;20493;-80
2020/12/08 09:45:25;;;;;;;40.03;24.10;;;7.20;94.20;;;;;;5033076;28;20090;-79
2020/12/08 09:47:50;;;;;;;42.10;22.67;;;7.20;94.20;;;;;;5025337;28;20032;-78
2020/12/08 09:50:16;;;;;;;42.45;23.75;;;7.20;94.10;;;;;;5032006;28;20237;-75
2020/12/08 09:52:42;;;;;;;37.25;22.00;;;7.20;94.10;;;;;;5015769;28;20038;-76
2020/12/08 09:55:07;;;;;;;34.90;22.05;;;7.20;94.20;;;;;;5035435;28;20117;-75
2020/12/08 09:57:33;;;;;;;42.33;24.13;;;7.20;94.20;;;;;;5015079;28;20021;-74
2020/12/08 09:59:59;;;;;;;39.75;23.30;;;7.20;94.10;;;;;;5045584;28;20040;-75
2020/12/08 10:02:25;;;;;;;44.25;24.20;;;7.20;94.10;;;;;;5027496;28;20493;-76
2020/12/08 10:04:52;;;;;;;41.53;23.88;;;7.20;94.10;;;;;;5030427;28;20052;-76
2020/12/08 10:07:19;;;;;;;40.40;24.38;;;7.20;94.10;;;;;;5034954;28;20037;-78
2020/12/08 10:09:48;;;;;;;34.92;22.02;;;7.30;94.10;;;;;;5039899;28;20029;-74
2020/12/08 10:12:17;;;;;;;38.03;22.50;;;7.30;94.00;;;;;;5031000;28;20026;-79
2020/12/08 10:14:44;;;;;;;37.05;22.55;;;7.30;94.10;;;;;;5028926;28;20014;-78
2020/12/08 10:17:11;;;;;;;42.00;23.02;;;7.30;94.00;;;;;;5024554;28;20072;-76
2020/12/08 10:19:38;;;;;;;41.47;23.35;;;7.30;94.10;;;;;;5032007;28;20030;-76
2020/12/08 10:22:04;;;;;;;38.92;23.73;;;7.40;94.00;;;;;;5028649;28;20112;-73
2020/12/08 10:24:30;;;;;;;40.72;22.95;;;7.40;93.90;;;;;;5048414;28;20053;-75
2020/12/08 10:26:56;;;;;;;38.33;23.60;;;7.40;93.90;;;;;;5019276;28;20026;-76
2020/12/08 10:29:22;;;;;;;43.15;24.42;;;7.40;93.90;;;;;;5012440;28;20086;-77
2020/12/08 10:31:50;;;;;;;40.85;23.13;;;7.40;93.80;;;;;;5024214;28;20488;-76
2020/12/08 10:34:16;;;;;;;41.83;23.25;;;7.40;93.80;;;;;;5051935;28;20104;-76
2020/12/08 10:36:44;;;;;;;40.88;22.83;;;7.50;93.80;;;;;;5043048;28;20029;-77
2020/12/08 10:39:11;;;;;;;39.13;23.27;;;7.50;93.90;;;;;;5032033;28;20386;-76
2020/12/08 10:41:36;;;;;;;38.28;23.40;;;7.50;93.70;;;;;;5024629;28;20067;-77
2020/12/08 10:44:02;;;;;;;35.38;21.02;;;7.60;93.70;;;;;;5012200;28;20026;-75
2020/12/08 10:46:28;;;;;;;37.53;21.25;;;7.60;93.60;;;;;;5018438;28;20029;-76
2020/12/08 10:48:54;;;;;;;38.63;23.20;;;7.60;93.70;;;;;;5046359;28;20469;-77
2020/12/08 10:51:21;;;;;;;39.70;22.52;;;7.60;93.70;;;;;;5026758;28;20076;-76
2020/12/08 10:53:47;;;;;;;41.25;22.95;;;7.60;93.60;;;;;;5011993;28;20056;-75
2020/12/08 10:56:23;;;;;;;38.90;22.65;;;7.70;93.60;;;;;;5012434;28;20132;-76
2020/12/08 10:58:50;;;;;;;39.17;22.55;;;7.70;93.50;;;;;;5031922;28;20033;-77
2020/12/08 11:01:26;;;;;;;41.05;22.90;;;7.70;93.50;;;;;;5030955;28;20068;-76
2020/12/08 11:03:54;;;;;;;37.30;20.73;;;7.70;93.40;;;;;;5013326;28;20032;-76
2020/12/08 11:06:25;;;;;;;36.60;22.58;;;7.70;93.40;;;;;;5030740;28;20029;-75
2020/12/08 11:08:53;;;;;;;36.70;21.58;;;7.80;93.30;;;;;;5031860;28;20053;-75
2020/12/08 11:11:23;;;;;;;39.10;22.48;;;7.80;93.40;;;;;;5030619;28;20037;-76
2020/12/08 11:13:50;;;;;;;37.10;22.65;;;7.80;93.20;;;;;;5031578;28;20040;-75
2020/12/08 11:16:16;;;;;;;35.45;21.23;;;7.80;93.20;;;;;;5039434;28;20025;-76
2020/12/08 11:18:42;;;;;;;37.80;21.58;;;7.80;93.20;;;;;;5031779;28;20036;-76
2020/12/08 11:21:08;;;;;;;40.65;24.27;;;7.90;93.20;;;;;;5029359;28;20042;-77
2020/12/08 11:23:34;;;;;;;40.92;23.33;;;7.90;93.00;;;;;;5049089;28;20440;-76
2020/12/08 11:25:59;;;;;;;37.00;21.75;;;7.90;93.10;;;;;;5050023;28;20453;-76
2020/12/08 11:28:25;;;;;;;39.83;22.40;;;7.90;93.00;;;;;;5013161;28;20063;-76
2020/12/08 11:30:51;;;;;;;41.58;23.92;;;7.90;93.00;;;;;;5034465;28;20025;-76
2020/12/08 11:33:17;;;;;;;37.00;23.13;;;7.90;92.90;;;;;;5016755;28;20382;-75
2020/12/08 11:35:43;;;;;;;36.50;22.20;;;8.00;93.00;;;;;;5038313;28;20032;-76
2020/12/08 11:38:09;;;;;;;36.05;22.67;;;8.00;92.80;;;;;;5040158;28;20082;-76
2020/12/08 11:40:35;;;;;;;37.88;21.75;;;8.00;92.70;;;;;;5055207;28;20374;-76
2020/12/08 11:43:00;;;;;;;35.03;21.48;;;8.10;92.80;;;;;;5042290;28;20033;-76
2020/12/08 11:45:26;;;;;;;35.22;22.83;;;8.10;92.80;;;;;;5055015;28;20439;-76
2020/12/08 11:47:52;;;;;;;33.97;20.75;;;8.10;92.80;;;;;;5036383;28;20031;-75
2020/12/08 11:50:18;;;;;;;39.75;23.48;;;8.20;92.60;;;;;;5042852;28;20025;-76
2020/12/08 11:52:43;;;;;;;39.05;21.85;;;8.20;92.50;;;;;;5040457;28;20049;-76
2020/12/08 11:55:09;;;;;;;38.15;21.90;;;8.20;92.40;;;;;;5035003;28;20039;-75
2020/12/08 11:57:37;;;;;;;34.75;20.85;;;8.20;92.40;;;;;;5033587;28;20454;-75
2020/12/08 12:00:07;;;;;;;36.70;21.33;;;8.20;92.40;;;;;;5016996;28;20026;-75
2020/12/08 12:02:33;;;;;;;38.38;21.35;;;8.30;92.40;;;;;;5015395;28;20034;-74
2020/12/08 12:04:59;;;;;;;40.50;21.40;;;8.30;92.30;;;;;;5028338;28;20030;-73
2020/12/08 12:07:25;;;;;;;39.20;20.48;;;8.30;92.30;;;;;;5034919;28;20026;-73
2020/12/08 12:09:50;;;;;;;36.33;21.92;;;8.40;92.30;;;;;;5034958;28;20025;-74
2020/12/08 12:12:16;;;;;;;39.45;23.75;;;8.40;92.10;;;;;;5034728;28;20022;-72
2020/12/08 12:14:42;;;;;;;40.53;23.52;;;8.40;92.00;;;;;;5034771;28;20458;-74
2020/12/08 12:17:07;;;;;;;35.75;22.80;;;8.40;92.10;;;;;;5034493;28;20029;-72
2020/12/08 12:19:33;;;;;;;39.55;23.08;;;8.40;92.00;;;;;;5034224;28;20116;-74
2020/12/08 12:22:00;;;;;;;43.78;22.63;;;8.40;91.80;;;;;;5015025;28;20041;-78
2020/12/08 12:24:26;;;;;;;38.22;23.92;;;8.40;91.90;;;;;;5015988;28;20025;-72
2020/12/08 12:26:52;;;;;;;37.30;23.45;;;8.40;91.80;;;;;;5033964;28;20029;-72
2020/12/08 12:29:17;;;;;;;38.15;23.13;;;8.30;91.80;;;;;;5034242;28;20018;-73
2020/12/08 12:31:47;;;;;;;39.58;23.33;;;8.40;91.80;;;;;;5034535;28;20049;-74
2020/12/08 12:34:13;;;;;;;39.05;22.40;;;8.30;91.70;;;;;;5034021;28;20037;-75